This is the latest recevied weather packets stored in our database for station/object iz1wiy-2. If no packets are shown the sender has not sent any weather packets the latest 10 day(s).
| Time | Temp. | Humidity | Pressure | Rain* | Wind** | Luminosity | Snow |
|---|---|---|---|---|---|---|---|
| 1777954203 | 15° C | 81% | 1011.2 hPa | 0.76 mm | - | - | - |
| 1777953903 | 15° C | 81% | 1011.1 hPa | 0.76 mm | - | - | - |
| 1777943103 | 16.67° C | 71% | 1013.5 hPa | 0.76 mm | - | - | - |
| 1777942504 | 17.22° C | 69% | 1013.7 hPa | 0.51 mm | - | - | - |
| 1777939204 | 18.33° C | 63% | 1014.4 hPa | 0 mm | - | - | - |
| 1777938604 | 18.33° C | 64% | 1014.6 hPa | 0 mm | - | - | - |
| 1777935004 | 18.33° C | 66% | 1015.6 hPa | 0 mm | - | - | - |
| 1777934104 | 18.33° C | 67% | 1015.7 hPa | 0 mm | - | - | - |
| 1777926904 | 17.78° C | 67% | 1016.9 hPa | 0 mm | - | - | - |
| 1777921504 | 18.33° C | 68% | 1016.8 hPa | 0 mm | - | - | - |
| 1777916103 | 18.89° C | 72% | 1016.6 hPa | 0 mm | - | - | - |
| 1777909203 | 18.89° C | 71% | 1016.8 hPa | 0 mm | - | - | - |
| 1777908903 | 18.89° C | 71% | 1016.8 hPa | 0 mm | - | - | - |
| 1777905603 | 20° C | 70% | 1017 hPa | 0 mm | - | - | - |
| 1777905303 | 19.44° C | 70% | 1017.1 hPa | 0 mm | - | - | - |
| 1777903504 | 19.44° C | 68% | 1017.5 hPa | 0 mm | - | - | - |
| 1777901703 | 19.44° C | 68% | 1017.6 hPa | 0 mm | - | - | - |
| 1777901104 | 19.44° C | 70% | 1017.8 hPa | 0 mm | - | - | - |
| 1777900803 | 18.89° C | 70% | 1017.8 hPa | 0 mm | - | - | - |
| 1777900503 | 18.89° C | 70% | 1017.8 hPa | 0 mm | - | - | - |
| 1777898103 | 19.44° C | 69% | 1018.1 hPa | 0 mm | - | - | - |
| 1777897803 | 19.44° C | 69% | 1018.1 hPa | 0 mm | - | - | - |
| 1777897503 | 18.89° C | 69% | 1018.1 hPa | 0 mm | - | - | - |
| 1777897203 | 19.44° C | 69% | 1018.2 hPa | 0 mm | - | - | - |
| 1777896903 | 18.89° C | 69% | 1018.3 hPa | 0 mm | - | - | - |
* Rain latest hour (hover to see other rain measurements)
** Current wind speed in m/s (hover to see current wind gust speed)